East TN State Univ, Tennessee
Current Conditions -  °F | °C
As of 1:44 PM on Wednesday 26 Nov 2014 (Local Time) from KTRI Reporting Station
Overcast Overcast  
Wind Chill: 41°   Ceiling: 3400
Heat Index: 45°   Visibility: 10mi
Dew Point: 38°   Wind: 8mph
Humidity: 76%   Direction: 260°W
Pressure: 30.01"   Gusts: NA
Location:  36.3658°N, 82.4151°W
Report Text: KTRI 261844Z 26007KT 10SM FEW014 FEW022 OVC034 07/03 A3001 RMK AO2 T00720033
Loading
Personal Weather Stations






























Interactive Weather Map New forecast layout! Learn more

10-Day Weather Forecast

Advertisements
Track Severe Weather on mobile